createdAt,value
2018-02-14T00:00:25.638Z,54.40
2018-02-14T00:02:53.272Z,54.10
2018-02-14T00:05:20.733Z,54.50
2018-02-14T00:07:48.383Z,54.50
2018-02-14T00:10:15.854Z,54.40
2018-02-14T00:12:43.308Z,54.60
2018-02-14T00:15:10.789Z,54.50
2018-02-14T00:17:38.253Z,54.50
2018-02-14T00:20:05.727Z,54.60
2018-02-14T00:22:33.246Z,54.60
2018-02-14T00:25:01.097Z,54.60
2018-02-14T00:27:28.653Z,54.80
2018-02-14T00:29:56.126Z,54.80
2018-02-14T00:32:23.581Z,54.80
2018-02-14T00:34:51.054Z,54.90
2018-02-14T00:37:18.531Z,54.80
2018-02-14T00:39:45.989Z,54.70
2018-02-14T00:42:13.474Z,55.00
2018-02-14T00:44:40.933Z,55.00
2018-02-14T00:47:08.894Z,55.00
2018-02-14T00:49:36.360Z,54.90
2018-02-14T00:52:03.822Z,55.00
2018-02-14T00:54:31.405Z,54.90
2018-02-14T00:56:58.890Z,55.00
2018-02-14T00:59:26.553Z,55.10
2018-02-14T01:01:54.017Z,55.20
2018-02-14T01:04:21.484Z,55.40
2018-02-14T01:06:48.956Z,55.60
2018-02-14T01:09:16.462Z,55.50
2018-02-14T01:14:23.626Z,55.20
2018-02-14T01:16:51.103Z,55.20
2018-02-14T01:19:18.582Z,55.10
2018-02-14T01:21:49.857Z,55.10
2018-02-14T01:24:17.345Z,55.50
2018-02-14T01:26:44.819Z,55.70
2018-02-14T01:29:12.391Z,55.60
2018-02-14T01:31:40.262Z,55.60
2018-02-14T01:34:08.087Z,55.60
2018-02-14T01:36:35.550Z,55.90
2018-02-14T01:39:03.063Z,56.10
2018-02-14T01:41:30.625Z,56.00
2018-02-14T01:43:58.142Z,55.90
2018-02-14T01:46:25.685Z,55.90
2018-02-14T01:48:53.284Z,56.00
2018-02-14T01:51:20.755Z,56.10
2018-02-14T01:53:48.465Z,56.00
2018-02-14T01:56:15.929Z,56.20
2018-02-14T01:58:43.598Z,56.10
2018-02-14T02:01:11.109Z,56.20
2018-02-14T02:03:38.586Z,55.90
2018-02-14T02:06:06.078Z,55.80
2018-02-14T02:08:33.545Z,55.70
2018-02-14T02:11:01.048Z,55.70
2018-02-14T02:13:28.783Z,55.70
2018-02-14T02:15:56.503Z,55.60
2018-02-14T02:18:23.970Z,55.60
2018-02-14T02:20:51.785Z,55.50
2018-02-14T02:23:19.242Z,55.50
2018-02-14T02:25:46.980Z,55.40
2018-02-14T02:28:14.658Z,55.40
2018-02-14T02:30:42.115Z,55.30
2018-02-14T02:33:09.581Z,55.60
2018-02-14T02:35:37.973Z,55.60
2018-02-14T02:38:05.486Z,55.40
2018-02-14T02:40:33.165Z,55.40
2018-02-14T02:43:00.635Z,56.00
2018-02-14T02:45:28.401Z,55.60
2018-02-14T02:47:55.903Z,55.70
2018-02-14T02:50:23.406Z,55.90
2018-02-14T02:52:51.146Z,55.90
2018-02-14T02:55:18.912Z,56.10
2018-02-14T02:57:46.365Z,56.20
2018-02-14T03:00:13.840Z,56.00
2018-02-14T03:02:42.094Z,55.90
2018-02-14T03:05:09.596Z,55.70
2018-02-14T03:07:37.080Z,56.30
2018-02-14T03:10:04.754Z,56.40
2018-02-14T03:12:32.484Z,56.20
2018-02-14T03:14:59.974Z,56.20
2018-02-14T03:17:27.449Z,56.10
2018-02-14T03:19:54.914Z,56.20
2018-02-14T03:22:22.387Z,56.10
2018-02-14T03:24:49.884Z,56.00
2018-02-14T03:27:17.336Z,56.00
2018-02-14T03:29:44.866Z,56.10
2018-02-14T03:32:12.601Z,56.10
2018-02-14T03:34:40.145Z,56.00
2018-02-14T03:37:07.727Z,55.90
2018-02-14T03:39:35.280Z,55.80
2018-02-14T03:42:02.922Z,56.00
2018-02-14T03:44:30.401Z,56.10
2018-02-14T03:46:57.917Z,56.10
2018-02-14T03:49:25.401Z,56.10
2018-02-14T03:51:52.873Z,56.10
2018-02-14T03:54:20.335Z,56.30
2018-02-14T03:56:48.038Z,56.30
2018-02-14T03:59:15.518Z,56.40
2018-02-14T04:01:43.315Z,56.50
2018-02-14T04:04:10.941Z,56.70
2018-02-14T04:06:38.482Z,56.70
2018-02-14T04:09:05.938Z,56.30
2018-02-14T04:11:33.409Z,56.10
2018-02-14T04:14:00.862Z,56.30
2018-02-14T04:16:28.366Z,56.40
2018-02-14T04:18:56.112Z,56.50
2018-02-14T04:21:23.835Z,56.40
2018-02-14T04:23:51.326Z,56.40
2018-02-14T04:26:18.839Z,56.50
2018-02-14T04:28:46.638Z,56.50
2018-02-14T04:31:14.105Z,56.50
2018-02-14T04:33:41.594Z,56.20
2018-02-14T04:36:10.206Z,56.60
2018-02-14T04:38:37.795Z,56.50
2018-02-14T04:41:05.298Z,56.60
2018-02-14T04:43:32.826Z,56.50
2018-02-14T04:46:01.586Z,56.50
2018-02-14T04:48:29.082Z,56.50
2018-02-14T04:50:56.558Z,56.50
2018-02-14T04:53:25.138Z,56.50
2018-02-14T04:55:52.646Z,56.50
2018-02-14T04:58:20.228Z,56.30
2018-02-14T05:00:47.720Z,56.20
2018-02-14T05:03:15.259Z,56.40
2018-02-14T05:05:42.816Z,56.60
2018-02-14T05:08:10.274Z,56.80
2018-02-14T05:10:38.522Z,57.00
2018-02-14T05:13:05.994Z,56.90
2018-02-14T05:15:33.644Z,56.80
2018-02-14T05:18:01.160Z,56.80
2018-02-14T05:20:28.660Z,56.70
2018-02-14T05:22:56.235Z,56.60
2018-02-14T05:25:23.795Z,56.50
2018-02-14T05:27:51.355Z,56.70
2018-02-14T05:30:18.995Z,56.80
2018-02-14T05:32:46.502Z,56.90
2018-02-14T05:35:14.647Z,57.00
2018-02-14T05:37:42.401Z,56.90
2018-02-14T05:40:09.884Z,56.90
2018-02-14T05:42:37.617Z,56.90
2018-02-14T05:45:05.091Z,56.80
2018-02-14T05:47:32.774Z,56.80
2018-02-14T05:50:00.254Z,56.80
2018-02-14T05:52:27.731Z,56.80
2018-02-14T05:54:55.189Z,56.80
2018-02-14T05:57:22.661Z,56.90
2018-02-14T05:59:50.121Z,56.80
2018-02-14T06:02:17.598Z,56.90
2018-02-14T06:04:45.051Z,56.70
2018-02-14T06:07:12.806Z,56.70
2018-02-14T06:09:40.264Z,56.50
2018-02-14T06:12:07.776Z,56.40
2018-02-14T06:14:35.523Z,56.50
2018-02-14T06:17:03.243Z,56.40
2018-02-14T06:19:31.005Z,56.50
2018-02-14T06:21:58.788Z,56.60
2018-02-14T06:24:26.526Z,56.60
2018-02-14T06:26:57.726Z,56.70
2018-02-14T06:29:25.327Z,56.70
2018-02-14T06:31:52.787Z,56.80
2018-02-14T06:34:20.245Z,57.00
2018-02-14T06:36:47.720Z,57.10
2018-02-14T06:39:15.175Z,57.10
2018-02-14T06:41:43.641Z,57.00
2018-02-14T06:44:11.125Z,56.90
2018-02-14T06:46:38.577Z,56.80
2018-02-14T06:49:06.064Z,56.90
2018-02-14T06:51:33.682Z,56.90
2018-02-14T06:54:01.230Z,56.70
2018-02-14T06:56:28.890Z,56.50
2018-02-14T06:58:56.354Z,56.50
2018-02-14T07:01:24.578Z,56.20
2018-02-14T07:03:52.299Z,56.30
2018-02-14T07:06:20.091Z,56.10
2018-02-14T07:08:47.559Z,55.90
2018-02-14T07:11:15.175Z,56.00
2018-02-14T07:13:42.642Z,56.20
2018-02-14T07:16:10.099Z,56.30
2018-02-14T07:18:37.646Z,56.20
2018-02-14T07:21:05.101Z,56.40
2018-02-14T07:23:32.577Z,56.30
2018-02-14T07:26:00.801Z,56.60
2018-02-14T07:28:28.313Z,56.70
2018-02-14T07:30:55.774Z,56.70
2018-02-14T07:33:23.257Z,56.60
2018-02-14T07:35:50.722Z,56.40
2018-02-14T07:38:18.225Z,56.30
2018-02-14T07:40:45.990Z,56.30
2018-02-14T07:43:13.746Z,56.20
2018-02-14T07:45:41.514Z,56.00
2018-02-14T07:48:09.031Z,56.10
2018-02-14T07:50:36.733Z,56.00
2018-02-14T07:53:04.197Z,55.90
2018-02-14T07:55:31.671Z,56.00
2018-02-14T07:57:59.438Z,55.90
2018-02-14T08:00:27.787Z,55.80
2018-02-14T08:02:55.245Z,55.80
2018-02-14T08:05:23.167Z,55.80
2018-02-14T08:07:50.622Z,55.90
2018-02-14T08:10:18.227Z,56.40
2018-02-14T08:12:45.685Z,56.10
2018-02-14T08:15:13.157Z,56.20
2018-02-14T08:17:40.614Z,56.20
2018-02-14T08:20:08.275Z,56.20
2018-02-14T08:22:35.761Z,56.20
2018-02-14T08:25:03.229Z,56.20
2018-02-14T08:27:30.738Z,56.30
2018-02-14T08:29:58.199Z,56.50
2018-02-14T08:32:25.856Z,56.60
2018-02-14T08:34:53.475Z,56.60
2018-02-14T08:37:20.938Z,56.50
2018-02-14T08:39:48.494Z,56.50
2018-02-14T08:42:15.961Z,56.20
2018-02-14T08:44:43.447Z,56.20
2018-02-14T08:47:10.957Z,56.30
2018-02-14T08:49:38.444Z,56.40
2018-02-14T08:52:05.894Z,56.10
2018-02-14T08:54:33.642Z,55.90
2018-02-14T08:57:01.102Z,55.80
2018-02-14T08:59:29.505Z,56.00
2018-02-14T09:01:56.980Z,56.00
2018-02-14T09:04:24.437Z,55.90
2018-02-14T09:06:51.937Z,55.80
2018-02-14T09:09:19.394Z,55.50
2018-02-14T09:11:46.855Z,55.30
2018-02-14T09:14:14.329Z,55.80
2018-02-14T09:16:42.015Z,55.20
2018-02-14T09:19:09.482Z,55.30
2018-02-14T09:21:36.943Z,55.30
2018-02-14T09:24:04.400Z,55.10
2018-02-14T09:26:31.868Z,54.80
2018-02-14T09:28:59.314Z,54.60
2018-02-14T09:31:27.006Z,54.50
2018-02-14T09:33:54.508Z,54.50
2018-02-14T09:36:21.982Z,54.40
2018-02-14T09:38:49.633Z,54.40
2018-02-14T09:41:17.089Z,54.10
2018-02-14T09:43:44.546Z,53.90
2018-02-14T09:46:12.014Z,53.60
2018-02-14T09:48:39.485Z,53.60
2018-02-14T09:51:06.925Z,53.50
2018-02-14T09:53:34.402Z,53.60
2018-02-14T09:56:01.854Z,53.50
2018-02-14T09:58:29.342Z,53.50
2018-02-14T10:00:56.800Z,53.30
2018-02-14T10:03:24.264Z,53.30
2018-02-14T10:05:51.719Z,53.10
2018-02-14T10:08:19.194Z,53.10
2018-02-14T10:10:46.650Z,53.00
2018-02-14T10:13:14.110Z,52.90
2018-02-14T10:15:41.566Z,52.70
2018-02-14T10:18:09.030Z,52.80
2018-02-14T10:20:36.485Z,52.50
2018-02-14T10:23:03.965Z,52.40
2018-02-14T10:25:31.409Z,52.10
2018-02-14T10:27:58.874Z,52.00
2018-02-14T10:30:26.330Z,52.00
2018-02-14T10:32:53.803Z,51.90
2018-02-14T10:35:21.250Z,51.70
2018-02-14T10:37:48.738Z,51.40
2018-02-14T10:40:16.366Z,51.40
2018-02-14T10:42:43.829Z,51.10
2018-02-14T10:45:11.315Z,51.00
2018-02-14T10:47:38.771Z,50.80
2018-02-14T10:50:06.227Z,50.70
2018-02-14T10:52:33.683Z,50.70
2018-02-14T10:55:01.143Z,50.70
2018-02-14T10:57:28.592Z,50.60
2018-02-14T10:59:56.062Z,50.60
2018-02-14T11:02:23.519Z,50.60
2018-02-14T11:04:56.693Z,50.40
2018-02-14T11:07:24.162Z,50.30
2018-02-14T11:09:51.634Z,50.20
2018-02-14T11:12:19.083Z,50.10
2018-02-14T11:14:46.542Z,49.90
2018-02-14T11:17:14.046Z,49.60
2018-02-14T11:19:41.553Z,49.60
2018-02-14T11:22:09.578Z,49.40
2018-02-14T11:24:37.050Z,49.20
2018-02-14T11:27:04.509Z,49.00
2018-02-14T11:29:31.991Z,49.20
2018-02-14T11:31:59.451Z,49.10
2018-02-14T11:34:26.910Z,49.10
2018-02-14T11:36:54.365Z,49.00
2018-02-14T11:39:21.829Z,48.90
2018-02-14T11:41:49.275Z,48.80
2018-02-14T11:44:16.806Z,48.70
2018-02-14T11:46:44.261Z,48.70
2018-02-14T11:49:11.722Z,48.50
2018-02-14T11:51:39.199Z,48.30
2018-02-14T11:54:06.658Z,48.20
2018-02-14T11:56:34.155Z,48.20
2018-02-14T11:59:01.602Z,48.20
2018-02-14T12:01:29.083Z,47.90
2018-02-14T12:03:56.567Z,47.80
2018-02-14T12:06:24.045Z,47.70
2018-02-14T12:08:51.489Z,47.60
2018-02-14T12:11:18.974Z,47.40
2018-02-14T12:13:46.430Z,47.40
2018-02-14T12:16:13.894Z,47.30
2018-02-14T12:18:41.351Z,46.90
2018-02-14T12:21:08.816Z,46.60
2018-02-14T12:23:36.286Z,46.30
2018-02-14T12:26:03.761Z,46.00
2018-02-14T12:28:31.212Z,45.70
2018-02-14T12:30:58.678Z,45.60
2018-02-14T12:33:26.169Z,45.30
2018-02-14T12:35:53.636Z,44.90
2018-02-14T12:38:21.095Z,44.60
2018-02-14T12:40:48.554Z,44.30
2018-02-14T12:43:16.024Z,44.00
2018-02-14T12:45:43.478Z,43.80
2018-02-14T12:48:10.935Z,43.60
2018-02-14T12:50:38.399Z,43.40
2018-02-14T12:53:05.863Z,43.30
2018-02-14T12:55:33.323Z,43.60
2018-02-14T12:58:00.804Z,42.80
2018-02-14T13:00:28.246Z,42.70
2018-02-14T13:02:55.716Z,42.40
2018-02-14T13:05:23.161Z,42.40
2018-02-14T13:07:50.627Z,42.30
2018-02-14T13:10:18.075Z,42.20
2018-02-14T13:12:45.543Z,42.50
2018-02-14T13:15:13.000Z,41.80
2018-02-14T13:17:40.455Z,41.80
2018-02-14T13:20:07.914Z,41.60
2018-02-14T13:22:35.438Z,41.40
2018-02-14T13:25:02.894Z,41.30
2018-02-14T13:27:30.354Z,41.20
2018-02-14T13:29:57.818Z,41.20
2018-02-14T13:32:25.278Z,40.90
2018-02-14T13:34:52.735Z,40.70
2018-02-14T13:37:20.242Z,40.50
2018-02-14T13:39:47.704Z,40.40
2018-02-14T13:42:15.158Z,40.20
2018-02-14T13:44:42.620Z,40.00
2018-02-14T13:47:10.084Z,39.90
2018-02-14T13:49:37.550Z,39.60
2018-02-14T13:52:05.022Z,39.30
2018-02-14T13:54:32.494Z,39.10
2018-02-14T13:56:59.948Z,39.00
2018-02-14T13:59:27.404Z,38.90
2018-02-14T14:01:54.858Z,38.90
2018-02-14T14:04:22.326Z,39.30
2018-02-14T14:06:49.790Z,38.70
2018-02-14T14:09:17.258Z,38.70
2018-02-14T14:11:46.346Z,38.80
2018-02-14T14:14:13.812Z,38.70
2018-02-14T14:16:41.267Z,38.70
2018-02-14T14:19:08.738Z,38.80
2018-02-14T14:21:36.194Z,38.80
2018-02-14T14:24:03.673Z,38.80
2018-02-14T14:26:31.130Z,38.70
2018-02-14T14:28:58.637Z,38.70
2018-02-14T14:31:26.094Z,38.70
2018-02-14T14:33:53.705Z,39.10
2018-02-14T14:36:21.160Z,38.50
2018-02-14T14:38:48.632Z,38.60
2018-02-14T14:41:16.094Z,38.70
2018-02-14T14:43:43.545Z,38.60
2018-02-14T14:46:10.999Z,38.30
2018-02-14T14:48:38.483Z,38.40
2018-02-14T14:51:05.922Z,38.30
2018-02-14T14:53:34.138Z,38.60
2018-02-14T14:56:02.545Z,38.70
2018-02-14T14:58:29.989Z,38.60
2018-02-14T15:00:57.457Z,38.70
2018-02-14T15:03:24.901Z,38.50
2018-02-14T15:05:52.396Z,38.50
2018-02-14T15:08:19.862Z,38.50
2018-02-14T15:10:47.322Z,38.60
2018-02-14T15:13:14.782Z,38.60
2018-02-14T15:15:42.256Z,38.50
2018-02-14T15:18:10.115Z,38.30
2018-02-14T15:20:37.594Z,38.20
2018-02-14T15:23:05.061Z,38.40
2018-02-14T15:25:32.520Z,38.40
2018-02-14T15:27:59.983Z,38.50
2018-02-14T15:30:27.449Z,39.20
2018-02-14T15:32:54.900Z,38.70
2018-02-14T15:35:22.368Z,38.90
2018-02-14T15:37:49.818Z,38.90
2018-02-14T15:40:17.303Z,38.90
2018-02-14T15:42:44.752Z,39.00
2018-02-14T15:45:12.209Z,39.20
2018-02-14T15:47:39.679Z,39.40
2018-02-14T15:50:07.125Z,39.40
2018-02-14T15:52:34.581Z,39.30
2018-02-14T15:55:02.071Z,39.20
2018-02-14T15:57:29.531Z,39.30
2018-02-14T15:59:57.004Z,39.50
2018-02-14T16:02:25.226Z,39.90
2018-02-14T16:04:52.731Z,39.90
2018-02-14T16:07:20.194Z,39.90
2018-02-14T16:09:47.643Z,40.00
2018-02-14T16:12:15.106Z,40.00
2018-02-14T16:14:42.569Z,40.20
2018-02-14T16:17:10.046Z,40.40
2018-02-14T16:19:37.506Z,40.40
2018-02-14T16:22:04.962Z,40.40
2018-02-14T16:24:32.430Z,40.50
2018-02-14T16:26:59.891Z,40.50
2018-02-14T16:29:27.342Z,40.70
2018-02-14T16:31:54.806Z,40.80
2018-02-14T16:34:22.266Z,40.70
2018-02-14T16:36:49.726Z,41.00
2018-02-14T16:39:17.179Z,41.20
2018-02-14T16:41:44.694Z,41.30
2018-02-14T16:44:12.905Z,41.70
2018-02-14T16:46:40.362Z,41.60
2018-02-14T16:49:07.826Z,41.80
2018-02-14T16:51:35.280Z,42.00
2018-02-14T16:54:02.742Z,42.00
2018-02-14T16:56:30.189Z,42.20
2018-02-14T16:58:57.679Z,42.30
2018-02-14T17:01:25.192Z,43.00
2018-02-14T17:03:52.650Z,42.70
2018-02-14T17:06:20.139Z,42.70
2018-02-14T17:08:47.604Z,42.70
2018-02-14T17:11:15.073Z,42.70
2018-02-14T17:13:42.533Z,42.80
2018-02-14T17:16:10.011Z,42.80
2018-02-14T17:18:38.235Z,43.10
2018-02-14T17:21:05.688Z,43.10
2018-02-14T17:23:33.177Z,43.30
2018-02-14T17:26:00.614Z,43.50
2018-02-14T17:28:28.165Z,43.70
2018-02-14T17:30:55.609Z,44.00
2018-02-14T17:33:23.076Z,44.20
2018-02-14T17:35:50.535Z,44.50
2018-02-14T17:38:18.001Z,44.70
2018-02-14T17:40:45.462Z,44.80
2018-02-14T17:43:12.940Z,44.90
2018-02-14T17:45:40.402Z,45.00
2018-02-14T17:48:08.648Z,45.20
2018-02-14T17:50:36.083Z,45.20
2018-02-14T17:53:03.573Z,45.20
2018-02-14T17:55:31.043Z,45.40
2018-02-14T17:57:58.854Z,45.60
2018-02-14T18:00:26.327Z,45.80
2018-02-14T18:02:53.794Z,45.90
2018-02-14T18:05:21.298Z,46.00
2018-02-14T18:07:49.566Z,46.20
2018-02-14T18:10:17.025Z,46.20
2018-02-14T18:12:44.613Z,46.30
2018-02-14T18:15:12.074Z,46.40
2018-02-14T18:17:39.533Z,46.40
2018-02-14T18:20:07.005Z,46.50
2018-02-14T18:22:34.445Z,46.60
2018-02-14T18:25:01.948Z,46.70
2018-02-14T18:27:29.398Z,46.70
2018-02-14T18:29:56.868Z,46.90
2018-02-14T18:32:24.327Z,47.00
2018-02-14T18:34:51.799Z,47.10
2018-02-14T18:37:19.257Z,47.20
2018-02-14T18:39:46.726Z,47.50
2018-02-14T18:42:14.182Z,47.60
2018-02-14T18:44:41.635Z,47.70
2018-02-14T18:47:09.093Z,47.80
2018-02-14T18:49:36.546Z,47.90
2018-02-14T18:52:04.015Z,48.00
2018-02-14T18:54:31.466Z,48.10
2018-02-14T18:56:58.938Z,48.20
2018-02-14T18:59:26.410Z,48.10
2018-02-14T19:01:53.878Z,48.30
2018-02-14T19:04:21.511Z,48.40
2018-02-14T19:06:48.969Z,48.60
2018-02-14T19:09:16.436Z,48.60
2018-02-14T19:11:44.613Z,48.70
2018-02-14T19:14:12.074Z,48.90
2018-02-14T19:16:39.547Z,49.10
2018-02-14T19:19:07.027Z,49.20
2018-02-14T19:21:34.492Z,49.20
2018-02-14T19:24:02.536Z,49.40
2018-02-14T19:26:29.998Z,49.50
2018-02-14T19:28:57.454Z,49.60
2018-02-14T19:31:24.914Z,49.70
2018-02-14T19:33:52.377Z,49.70
2018-02-14T19:36:19.883Z,49.70
2018-02-14T19:38:47.332Z,49.70
2018-02-14T19:41:14.901Z,49.90
2018-02-14T19:43:42.374Z,50.00
2018-02-14T19:46:09.831Z,50.10
2018-02-14T19:48:37.306Z,50.20
2018-02-14T19:51:04.778Z,50.30
2018-02-14T19:53:32.239Z,50.30
2018-02-14T19:55:59.694Z,50.30
2018-02-14T19:58:27.206Z,50.30
2018-02-14T20:00:54.666Z,50.30
2018-02-14T20:03:22.174Z,50.30
2018-02-14T20:05:49.668Z,50.40
2018-02-14T20:08:17.135Z,50.40
2018-02-14T20:10:44.607Z,50.50
2018-02-14T20:13:12.088Z,50.50
2018-02-14T20:15:39.546Z,50.60
2018-02-14T20:18:07.027Z,50.60
2018-02-14T20:20:35.246Z,50.80
2018-02-14T20:23:02.715Z,50.80
2018-02-14T20:25:30.190Z,50.90
2018-02-14T20:27:57.953Z,51.00
2018-02-14T20:30:25.414Z,51.10
2018-02-14T20:32:53.007Z,51.20
2018-02-14T20:35:21.230Z,51.40
2018-02-14T20:37:48.713Z,51.40
2018-02-14T20:40:16.543Z,51.40
2018-02-14T20:42:44.130Z,51.30
2018-02-14T20:45:11.630Z,51.40
2018-02-14T20:47:39.082Z,51.90
2018-02-14T20:50:06.628Z,51.40
2018-02-14T20:52:34.085Z,51.50
2018-02-14T20:55:01.705Z,51.60
2018-02-14T20:57:29.178Z,51.80
2018-02-14T20:59:56.645Z,52.00
2018-02-14T21:02:24.093Z,52.10
2018-02-14T21:04:51.554Z,52.30
2018-02-14T21:07:19.123Z,52.40
2018-02-14T21:09:46.882Z,52.40
2018-02-14T21:12:14.384Z,52.40
2018-02-14T21:14:42.030Z,52.40
2018-02-14T21:17:09.553Z,52.50
2018-02-14T21:19:37.196Z,52.50
2018-02-14T21:22:04.650Z,52.60
2018-02-14T21:24:32.205Z,52.60
2018-02-14T21:26:59.689Z,52.70
2018-02-14T21:29:27.146Z,52.80
2018-02-14T21:31:54.940Z,52.70
2018-02-14T21:34:22.574Z,52.70
2018-02-14T21:36:50.084Z,52.80
2018-02-14T21:39:17.523Z,52.80
2018-02-14T21:41:45.008Z,52.80
2018-02-14T21:44:12.535Z,52.90
2018-02-14T21:46:40.266Z,52.80
2018-02-14T21:49:07.965Z,52.90
2018-02-14T21:51:35.478Z,53.10
2018-02-14T21:54:02.955Z,53.10
2018-02-14T21:56:30.615Z,53.10
2018-02-14T21:58:58.102Z,53.00
2018-02-14T22:01:25.640Z,53.10
2018-02-14T22:03:53.390Z,53.20
2018-02-14T22:06:21.051Z,53.40
2018-02-14T22:08:48.514Z,53.50
2018-02-14T22:11:15.989Z,53.50
2018-02-14T22:13:44.222Z,53.60
2018-02-14T22:16:11.686Z,53.50
2018-02-14T22:18:39.144Z,53.40
2018-02-14T22:21:06.612Z,53.50
2018-02-14T22:23:34.156Z,53.50
2018-02-14T22:26:01.658Z,53.50
2018-02-14T22:28:29.165Z,53.50
2018-02-14T22:30:57.290Z,53.50
2018-02-14T22:33:24.977Z,53.60
2018-02-14T22:35:52.483Z,53.60
2018-02-14T22:38:19.929Z,53.60
2018-02-14T22:40:47.498Z,53.60
2018-02-14T22:43:15.509Z,53.70
2018-02-14T22:45:43.098Z,54.30
2018-02-14T22:48:10.578Z,53.80
2018-02-14T22:50:38.043Z,53.80
2018-02-14T22:53:05.492Z,53.90
2018-02-14T22:55:32.957Z,53.90
2018-02-14T22:58:00.498Z,54.00
2018-02-14T23:00:28.866Z,54.00
2018-02-14T23:02:56.334Z,53.80
2018-02-14T23:05:23.983Z,53.60
2018-02-14T23:07:51.443Z,53.70
2018-02-14T23:10:19.001Z,53.80
2018-02-14T23:12:46.472Z,53.90
2018-02-14T23:15:13.931Z,53.90
2018-02-14T23:17:41.404Z,53.80
2018-02-14T23:20:09.150Z,54.00
2018-02-14T23:22:36.593Z,54.20
2018-02-14T23:25:04.398Z,54.10
2018-02-14T23:27:32.137Z,54.20
2018-02-14T23:29:59.925Z,54.40
2018-02-14T23:32:27.379Z,54.60
2018-02-14T23:34:55.042Z,54.70
2018-02-14T23:37:22.558Z,54.70
2018-02-14T23:39:50.029Z,54.70
2018-02-14T23:42:17.706Z,54.80
2018-02-14T23:44:45.173Z,54.80
2018-02-14T23:47:12.649Z,54.90
2018-02-14T23:49:40.089Z,55.30
2018-02-14T23:52:07.549Z,54.80
2018-02-14T23:54:35.011Z,54.80
2018-02-14T23:57:02.485Z,54.90
2018-02-14T23:59:29.976Z,54.90
